Time;durP1;ratioP1;P1;durP2;ratioP2;P2;SDS_P1;SDS_P2;PMS_P1;PMS_P2;Temp;Humidity;BMP_temperature;BMP_pressure;BME280_temperature;BME280_humidity;BME280_pressure;Samples;Min_cycle;Max_cycle;Signal;HPM_P1;HPM_P2
2023/02/19 00:01:40;;;;;;;7.68;2.40;;;10.00;1.00;;;;;;5072826;28;20799;-58
2023/02/19 00:04:13;;;;;;;5.90;2.40;;;10.00;1.00;;;;;;5071590;28;20445;-58
2023/02/19 00:06:41;;;;;;;7.07;2.60;;;10.00;1.00;;;;;;5071703;28;20391;-58
2023/02/19 00:09:08;;;;;;;7.05;2.90;;;9.90;1.00;;;;;;5071344;28;20424;-58
2023/02/19 00:11:36;;;;;;;7.22;3.00;;;9.90;1.00;;;;;;5072163;28;20525;-58
2023/02/19 00:14:04;;;;;;;8.90;3.50;;;9.80;1.00;;;;;;5071867;28;20405;-58
2023/02/19 00:16:35;;;;;;;7.72;2.80;;;9.90;1.00;;;;;;5071369;28;20483;-58
2023/02/19 00:19:03;;;;;;;7.18;2.80;;;9.90;1.00;;;;;;5072384;28;20415;-58
2023/02/19 00:21:30;;;;;;;7.47;3.20;;;9.80;1.00;;;;;;5071608;28;20453;-58
2023/02/19 00:23:59;;;;;;;7.25;2.80;;;9.80;1.00;;;;;;5071509;28;20384;-58
2023/02/19 00:26:25;;;;;;;8.38;3.20;;;9.70;1.00;;;;;;5070816;28;20965;-57
2023/02/19 00:28:52;;;;;;;9.10;3.72;;;9.70;1.00;;;;;;5071450;28;20383;-57
2023/02/19 00:31:24;;;;;;;8.80;3.25;;;9.80;1.00;;;;;;5070560;28;20407;-57
2023/02/19 00:33:52;;;;;;;8.27;3.30;;;9.70;1.00;;;;;;5072023;28;20403;-57
2023/02/19 00:36:18;;;;;;;8.52;3.47;;;9.80;1.00;;;;;;5071111;28;20487;-57
2023/02/19 00:38:47;;;;;;;8.48;3.50;;;9.80;1.00;;;;;;5071676;28;20399;-57
2023/02/19 00:41:20;;;;;;;8.60;3.60;;;9.90;1.00;;;;;;5071416;28;20380;-57
2023/02/19 00:44:03;;;;;;;9.70;3.28;;;9.90;1.00;;;;;;5071787;28;20434;-57
2023/02/19 00:46:35;;;;;;;8.23;3.10;;;10.00;1.00;;;;;;5070466;28;20970;-57
2023/02/19 00:49:01;;;;;;;7.95;3.30;;;10.00;1.00;;;;;;5063908;28;20405;-57
2023/02/19 00:51:29;;;;;;;7.72;3.20;;;10.00;1.00;;;;;;5068754;28;20416;-57
2023/02/19 00:53:55;;;;;;;7.40;3.20;;;10.00;1.00;;;;;;5086268;28;20863;-57
2023/02/19 00:56:21;;;;;;;7.80;3.17;;;10.00;1.00;;;;;;5090387;28;20463;-57
2023/02/19 00:58:48;;;;;;;7.32;3.10;;;10.10;1.00;;;;;;5090427;28;21197;-57
2023/02/19 01:01:14;;;;;;;8.00;3.17;;;10.00;1.00;;;;;;5089989;28;20382;-57
2023/02/19 01:03:40;;;;;;;7.50;3.00;;;9.80;1.00;;;;;;5090667;28;20382;-57
2023/02/19 01:06:08;;;;;;;7.27;2.97;;;9.80;1.00;;;;;;5089871;28;20705;-57
2023/02/19 01:08:34;;;;;;;7.55;3.60;;;9.90;1.00;;;;;;5090335;28;20378;-57
2023/02/19 01:11:01;;;;;;;7.60;2.93;;;9.90;1.00;;;;;;5090827;28;20472;-57
2023/02/19 01:13:27;;;;;;;8.32;3.20;;;9.90;1.00;;;;;;5090363;28;20374;-57
2023/02/19 01:15:53;;;;;;;7.05;2.80;;;10.00;1.00;;;;;;5090572;28;20370;-57
2023/02/19 01:18:19;;;;;;;8.70;2.95;;;10.00;1.00;;;;;;5074556;28;20387;-57
2023/02/19 01:20:46;;;;;;;7.88;3.55;;;10.00;1.00;;;;;;5070645;28;20849;-57
2023/02/19 01:23:12;;;;;;;8.95;3.22;;;10.00;1.00;;;;;;5069645;28;20471;-57
2023/02/19 01:25:41;;;;;;;8.75;3.50;;;10.00;1.00;;;;;;5068879;28;20814;-57
2023/02/19 01:28:07;;;;;;;7.50;3.28;;;10.10;1.00;;;;;;5070134;28;20416;-57
2023/02/19 01:30:35;;;;;;;7.38;3.03;;;10.20;1.00;;;;;;5070294;28;20384;-58
2023/02/19 01:33:05;;;;;;;8.20;3.50;;;10.20;1.00;;;;;;5070368;28;20445;-58
2023/02/19 01:35:31;;;;;;;10.13;3.38;;;10.20;1.00;;;;;;5063805;28;20447;-57
2023/02/19 01:37:57;;;;;;;8.03;3.30;;;10.20;1.00;;;;;;5049999;28;20389;-57
2023/02/19 01:40:22;;;;;;;6.82;2.80;;;10.30;1.00;;;;;;5049703;28;21355;-57
2023/02/19 01:42:48;;;;;;;9.23;3.07;;;10.20;1.00;;;;;;5050624;28;20451;-57
2023/02/19 01:45:32;;;;;;;7.45;3.15;;;10.30;1.00;;;;;;5049356;28;20425;-58
2023/02/19 01:48:17;;;;;;;7.90;3.30;;;10.30;1.00;;;;;;5050528;28;20388;-58
2023/02/19 01:50:57;;;;;;;8.80;3.08;;;10.30;1.00;;;;;;5050077;28;20391;-58
2023/02/19 01:53:28;;;;;;;7.88;3.30;;;10.30;1.00;;;;;;5053988;28;20403;-58
2023/02/19 01:55:58;;;;;;;7.70;3.15;;;10.30;1.00;;;;;;5054339;28;20694;-58
2023/02/19 01:58:27;;;;;;;7.32;3.30;;;10.30;1.00;;;;;;5069600;28;20392;-57
2023/02/19 02:00:53;;;;;;;6.90;2.90;;;10.20;1.00;;;;;;5050642;28;20749;-57
2023/02/19 02:03:20;;;;;;;6.53;2.90;;;10.20;1.00;;;;;;5048986;28;20381;-57
2023/02/19 02:06:15;;;;;;;8.05;3.38;;;10.20;1.00;;;;;;5049657;28;20383;-57
2023/02/19 02:11:26;;;;;;;7.30;2.70;;;10.10;1.00;;;;;;5048841;28;20447;-57
2023/02/19 02:13:52;;;;;;;6.97;2.65;;;9.90;1.00;;;;;;5050055;28;20381;-57
2023/02/19 02:16:23;;;;;;;7.63;2.88;;;9.80;1.00;;;;;;5055193;28;20395;-57
2023/02/19 02:18:55;;;;;;;7.07;2.70;;;9.70;1.00;;;;;;5070111;28;20392;-57
2023/02/19 02:21:50;;;;;;;8.57;3.30;;;9.60;1.00;;;;;;5069104;28;20395;-57
2023/02/19 02:24:33;;;;;;;7.97;3.38;;;9.60;6.80;;;;;;5060043;28;20394;-57
2023/02/19 02:27:21;;;;;;;8.20;3.13;;;9.60;2.90;;;;;;5068223;28;20412;-57
2023/02/19 02:29:58;;;;;;;8.23;3.20;;;9.60;7.00;;;;;;5069980;28;20383;-57
2023/02/19 02:32:31;;;;;;;8.63;2.78;;;9.50;16.60;;;;;;5068809;28;20490;-57
2023/02/19 02:35:04;;;;;;;9.70;3.60;;;9.50;14.40;;;;;;5056034;28;20412;-58
2023/02/19 02:37:34;;;;;;;8.18;3.15;;;9.60;15.80;;;;;;5049232;28;20393;-57
2023/02/19 02:40:00;;;;;;;7.72;3.20;;;9.70;10.00;;;;;;5049706;28;20460;-57
2023/02/19 02:42:26;;;;;;;8.05;3.20;;;9.60;1.00;;;;;;5048770;28;20385;-57
2023/02/19 02:47:43;;;;;;;7.00;2.90;;;9.60;24.60;;;;;;5049408;28;20464;-57
2023/02/19 02:50:22;;;;;;;8.40;3.28;;;9.60;15.70;;;;;;5048650;28;20420;-57
2023/02/19 02:55:40;;;;;;;6.70;2.22;;;9.60;30.00;;;;;;5049802;28;20396;-57
2023/02/19 02:58:06;;;;;;;6.50;2.50;;;9.50;27.60;;;;;;5049458;28;20866;-58
2023/02/19 03:02:09;;;;;;;7.15;2.20;;;9.50;34.10;;;;;;5049085;28;20377;-57
2023/02/19 03:03:24;;;;;;;6.63;2.63;;;9.60;25.70;;;;;;5048462;28;20422;-57
2023/02/19 03:05:51;;;;;;;6.70;2.10;;;9.50;30.40;;;;;;5049455;28;20440;-57
2023/02/19 03:08:29;;;;;;;6.07;2.20;;;9.50;33.30;;;;;;5048740;28;20835;-57
2023/02/19 03:20:12;;;;;;;5.25;1.48;;;9.20;90.20;;;;;;5052451;28;20400;-57
2023/02/19 03:22:41;;;;;;;5.47;2.00;;;9.10;97.30;;;;;;5053001;28;20473;-57
2023/02/19 03:27:59;;;;;;;4.85;1.50;;;9.30;98.30;;;;;;5053365;28;20415;-57
2023/02/19 03:30:30;;;;;;;4.72;1.48;;;9.30;84.80;;;;;;5052208;28;20395;-58
2023/02/19 03:32:58;;;;;;;5.00;1.50;;;9.40;87.80;;;;;;5053158;28;20397;-57
2023/02/19 03:35:29;;;;;;;6.28;1.65;;;9.40;65.10;;;;;;5052182;28;20433;-57
2023/02/19 03:38:19;;;;;;;4.30;1.20;;;9.40;57.30;;;;;;5053345;28;20369;-57
2023/02/19 03:41:06;;;;;;;4.80;1.70;;;9.30;76.70;;;;;;5053040;28;20468;-57
2023/02/19 03:43:49;;;;;;;4.40;1.20;;;9.30;67.40;;;;;;5052232;28;20388;-57
2023/02/19 03:46:33;;;;;;;4.90;1.00;;;9.30;73.30;;;;;;5051972;28;20469;-57
2023/02/19 03:49:09;;;;;;;4.65;1.27;;;9.20;96.20;;;;;;5052683;28;20408;-57
2023/02/19 03:52:13;;;;;;;4.57;0.90;;;9.20;87.20;;;;;;5052406;28;20443;-57
2023/02/19 03:54:56;;;;;;;4.30;1.10;;;9.20;71.30;;;;;;5046552;28;20967;-57
2023/02/19 03:57:35;;;;;;;4.95;0.70;;;9.20;39.20;;;;;;5051619;28;20373;-57
2023/02/19 04:00:08;;;;;;;4.50;0.90;;;9.20;47.30;;;;;;5052297;28;20414;-58
2023/02/19 04:02:41;;;;;;;3.70;0.63;;;9.30;59.70;;;;;;5052480;28;20419;-57
2023/02/19 04:05:28;;;;;;;3.50;0.60;;;9.30;23.10;;;;;;5052271;28;20439;-57
2023/02/19 04:07:58;;;;;;;3.72;0.60;;;9.40;13.50;;;;;;5052196;28;20381;-57
2023/02/19 04:10:25;;;;;;;3.22;0.40;;;9.20;1.00;;;;;;5051873;28;20391;-57
2023/02/19 04:13:06;;;;;;;3.30;0.40;;;9.20;1.00;;;;;;5052321;28;20402;-56
2023/02/19 04:15:35;;;;;;;4.20;0.60;;;9.20;1.00;;;;;;5051939;28;20389;-57
2023/02/19 04:18:07;;;;;;;3.40;0.50;;;9.20;1.00;;;;;;5051511;28;20798;-57
2023/02/19 04:20:38;;;;;;;3.80;0.40;;;11.20;1.00;;;;;;5052324;28;20396;-57
2023/02/19 04:23:04;;;;;;;3.50;0.40;;;9.30;1.00;;;;;;5052168;28;20443;-57
2023/02/19 04:25:30;;;;;;;3.30;0.57;;;9.20;1.00;;;;;;5050974;28;20424;-57
2023/02/19 04:27:57;;;;;;;3.30;0.50;;;9.20;1.00;;;;;;5051179;28;20417;-57
2023/02/19 04:30:23;;;;;;;3.30;0.50;;;9.30;1.00;;;;;;5051551;28;20735;-57
2023/02/19 04:32:50;;;;;;;3.97;0.50;;;9.30;1.00;;;;;;5051768;28;20623;-57
2023/02/19 04:35:15;;;;;;;5.00;0.70;;;9.10;1.00;;;;;;5050917;28;20720;-57
2023/02/19 04:37:41;;;;;;;3.40;0.53;;;9.10;1.00;;;;;;5052729;28;20439;-59
2023/02/19 04:40:07;;;;;;;3.40;0.40;;;9.10;1.00;;;;;;5051592;28;20858;-57
2023/02/19 04:42:33;;;;;;;3.30;0.50;;;9.10;1.00;;;;;;5050275;28;20746;-57
2023/02/19 04:44:59;;;;;;;3.30;0.50;;;9.00;1.00;;;;;;5052072;28;20388;-57
2023/02/19 04:47:24;;;;;;;3.70;0.68;;;9.00;1.00;;;;;;5051060;28;20435;-57
2023/02/19 04:49:50;;;;;;;3.50;0.50;;;10.30;1.00;;;;;;5051345;28;20465;-57
2023/02/19 04:52:15;;;;;;;3.72;0.70;;;8.90;1.00;;;;;;5050638;28;20405;-57
2023/02/19 04:54:41;;;;;;;3.60;0.65;;;9.60;1.00;;;;;;5051439;28;20492;-57
2023/02/19 04:57:07;;;;;;;5.20;1.07;;;9.00;1.00;;;;;;5050681;28;20863;-57
2023/02/19 04:59:32;;;;;;;3.70;0.90;;;9.00;1.00;;;;;;5051616;28;20373;-57
2023/02/19 05:01:59;;;;;;;3.80;0.70;;;8.90;1.00;;;;;;5051271;28;20428;-57
2023/02/19 05:04:25;;;;;;;3.65;0.65;;;9.00;1.00;;;;;;5050582;28;20398;-57
2023/02/19 05:06:51;;;;;;;4.07;0.97;;;9.80;1.00;;;;;;5051194;28;20396;-57
2023/02/19 05:09:16;;;;;;;3.70;0.80;;;8.80;1.00;;;;;;5050293;28;20876;-57
2023/02/19 05:11:42;;;;;;;3.77;0.90;;;8.90;1.00;;;;;;5051355;28;20405;-57
2023/02/19 05:14:07;;;;;;;4.20;0.60;;;10.60;1.00;;;;;;5050243;28;20823;-57
2023/02/19 05:16:33;;;;;;;4.20;0.90;;;8.80;1.00;;;;;;5050583;28;20438;-56
2023/02/19 05:18:58;;;;;;;3.60;0.60;;;8.80;1.00;;;;;;5050963;28;20454;-56
2023/02/19 05:21:24;;;;;;;4.00;0.80;;;8.80;1.00;;;;;;5050199;28;20381;-57
2023/02/19 05:23:50;;;;;;;4.27;0.70;;;10.10;1.00;;;;;;5050740;28;20388;-57
2023/02/19 05:26:22;;;;;;;3.80;0.50;;;8.70;1.00;;;;;;5049783;28;20875;-57
2023/02/19 05:28:51;;;;;;;3.80;0.90;;;8.60;1.00;;;;;;5050856;28;20382;-57
2023/02/19 05:31:18;;;;;;;3.90;1.00;;;10.70;1.00;;;;;;5048655;28;20767;-57
2023/02/19 05:33:44;;;;;;;3.90;0.70;;;8.70;1.00;;;;;;5050849;28;20401;-57
2023/02/19 05:36:12;;;;;;;7.07;0.80;;;8.70;1.00;;;;;;5048807;28;21996;-57
2023/02/19 05:38:39;;;;;;;3.90;0.80;;;8.70;1.00;;;;;;5049494;28;20496;-57
2023/02/19 05:41:10;;;;;;;4.20;0.80;;;8.70;1.00;;;;;;5050369;28;20378;-57
2023/02/19 05:43:39;;;;;;;4.32;0.60;;;8.70;1.00;;;;;;5050560;28;20843;-57
2023/02/19 05:46:05;;;;;;;3.55;0.60;;;9.60;1.00;;;;;;5050280;28;20389;-57
2023/02/19 05:48:33;;;;;;;3.42;0.50;;;8.80;1.00;;;;;;5049567;28;20392;-57
2023/02/19 05:51:04;;;;;;;3.40;0.50;;;8.80;1.00;;;;;;5050340;28;20385;-57
2023/02/19 05:53:30;;;;;;;3.58;0.50;;;8.80;1.00;;;;;;5049570;28;20834;-57
2023/02/19 05:55:55;;;;;;;3.80;0.50;;;8.80;1.00;;;;;;5049876;28;20457;-57
2023/02/19 05:58:21;;;;;;;3.70;0.50;;;8.80;1.00;;;;;;5049673;28;21146;-57
2023/02/19 06:00:47;;;;;;;3.37;0.40;;;8.70;1.00;;;;;;5050001;28;20450;-57
2023/02/19 06:03:12;;;;;;;3.30;0.35;;;8.80;1.00;;;;;;5049170;28;20409;-59
2023/02/19 06:05:38;;;;;;;3.50;0.47;;;9.10;1.00;;;;;;5049976;28;20386;-59
2023/02/19 06:08:04;;;;;;;3.50;0.70;;;8.80;1.00;;;;;;5050161;28;20373;-59
2023/02/19 06:10:29;;;;;;;3.40;0.47;;;8.70;1.00;;;;;;5049407;28;20669;-57
2023/02/19 06:12:55;;;;;;;3.60;0.60;;;10.50;1.00;;;;;;5049917;28;20840;-57
2023/02/19 06:15:22;;;;;;;4.20;0.50;;;8.70;1.00;;;;;;5049129;28;20433;-57
2023/02/19 06:17:48;;;;;;;3.65;0.60;;;8.60;1.00;;;;;;5049824;28;20440;-59
2023/02/19 06:20:14;;;;;;;3.70;0.63;;;9.50;1.00;;;;;;5049140;28;20414;-59
2023/02/19 06:22:39;;;;;;;3.80;0.50;;;8.70;1.00;;;;;;5049429;28;20776;-59
2023/02/19 06:25:06;;;;;;;3.63;0.60;;;8.70;1.00;;;;;;5049441;28;20410;-58
2023/02/19 06:27:35;;;;;;;3.60;0.70;;;8.80;1.00;;;;;;5049564;28;20393;-57
2023/02/19 06:30:00;;;;;;;3.53;0.50;;;8.90;1.00;;;;;;5050126;28;20441;-57
2023/02/19 06:32:26;;;;;;;3.60;0.60;;;8.80;1.00;;;;;;5048520;28;20499;-57
2023/02/19 06:34:51;;;;;;;3.50;0.50;;;8.80;1.00;;;;;;5049983;28;20388;-57
2023/02/19 06:37:17;;;;;;;4.00;0.80;;;8.90;1.00;;;;;;5049040;28;20850;-57
2023/02/19 06:39:42;;;;;;;4.97;0.90;;;9.30;99.90;;;;;;5049547;28;20912;-59
2023/02/19 06:42:08;;;;;;;4.00;0.60;;;8.80;99.90;;;;;;5048900;28;20435;-57
2023/02/19 06:44:34;;;;;;;3.60;0.60;;;8.90;1.00;;;;;;5049703;28;20385;-57
2023/02/19 06:46:59;;;;;;;4.50;0.70;;;8.90;99.90;;;;;;5049292;28;20881;-57
2023/02/19 06:49:25;;;;;;;4.05;0.77;;;8.80;99.90;;;;;;5049550;28;20389;-59
2023/02/19 06:51:51;;;;;;;4.20;0.67;;;9.70;99.90;;;;;;5053306;28;20878;-57
2023/02/19 06:54:16;;;;;;;4.65;1.02;;;8.90;99.90;;;;;;5052632;28;20392;-57
2023/02/19 06:56:42;;;;;;;5.60;1.40;;;9.10;99.90;;;;;;5053950;28;20435;-57
2023/02/19 06:59:10;;;;;;;4.60;1.00;;;8.90;99.90;;;;;;5052886;28;20385;-57
2023/02/19 07:01:37;;;;;;;4.00;0.82;;;8.90;99.90;;;;;;5053225;28;20412;-57
2023/02/19 07:04:04;;;;;;;4.20;1.00;;;10.00;99.90;;;;;;5058368;28;20395;-57
2023/02/19 07:06:30;;;;;;;5.45;1.10;;;9.00;99.90;;;;;;5067846;28;20392;-57
2023/02/19 07:08:57;;;;;;;4.13;0.97;;;9.60;99.90;;;;;;5073020;28;20877;-57
2023/02/19 07:11:23;;;;;;;4.20;1.00;;;9.00;99.90;;;;;;5052214;28;20435;-57
2023/02/19 07:13:56;;;;;;;4.60;1.08;;;9.10;99.90;;;;;;5057804;28;20860;-57
2023/02/19 07:16:23;;;;;;;3.90;0.80;;;9.00;99.90;;;;;;5072185;28;20415;-57
2023/02/19 07:18:49;;;;;;;4.13;0.90;;;9.10;99.90;;;;;;5072981;28;20371;-57
2023/02/19 07:21:16;;;;;;;4.10;0.70;;;9.10;99.90;;;;;;5072455;28;20391;-57
2023/02/19 07:23:42;;;;;;;4.80;0.80;;;9.00;99.90;;;;;;5073272;28;20478;-57
2023/02/19 07:26:12;;;;;;;4.30;1.00;;;9.10;99.90;;;;;;5072592;28;20741;-57
2023/02/19 07:28:45;;;;;;;4.80;1.00;;;9.10;99.90;;;;;;5073249;28;20848;-57
2023/02/19 07:31:12;;;;;;;4.60;0.93;;;9.10;99.90;;;;;;5071967;28;20411;-58
2023/02/19 07:33:38;;;;;;;4.85;1.20;;;9.10;99.90;;;;;;5072240;28;20474;-57
2023/02/19 07:36:06;;;;;;;4.70;1.00;;;9.10;99.90;;;;;;5054761;28;20393;-57
2023/02/19 07:38:31;;;;;;;4.50;1.10;;;9.20;92.80;;;;;;5051966;28;20461;-57
2023/02/19 07:41:00;;;;;;;4.90;1.33;;;9.10;1.00;;;;;;5069913;28;20392;-57
2023/02/19 07:43:27;;;;;;;5.00;1.25;;;9.20;1.00;;;;;;5072111;28;20376;-57
2023/02/19 07:45:53;;;;;;;5.20;1.30;;;9.30;1.00;;;;;;5060711;28;20925;-57
2023/02/19 07:48:19;;;;;;;4.68;1.00;;;9.30;1.00;;;;;;5051745;28;20517;-57
2023/02/19 07:50:56;;;;;;;4.32;1.00;;;9.30;1.00;;;;;;5052668;28;20377;-57
2023/02/19 07:53:22;;;;;;;4.93;1.30;;;9.20;1.00;;;;;;5069963;28;20406;-57
2023/02/19 07:55:48;;;;;;;5.23;1.20;;;9.60;1.00;;;;;;5083784;28;20403;-57
2023/02/19 07:58:13;;;;;;;4.50;1.13;;;9.20;1.00;;;;;;5066829;28;20416;-57
2023/02/19 08:00:39;;;;;;;4.70;1.20;;;9.30;1.00;;;;;;5071734;28;20395;-57
2023/02/19 08:03:06;;;;;;;4.82;1.23;;;9.50;99.90;;;;;;5063096;28;20408;-54
2023/02/19 08:05:35;;;;;;;6.63;1.40;;;9.50;99.90;;;;;;5076440;28;20728;-59
2023/02/19 08:08:05;;;;;;;4.57;0.93;;;9.60;1.00;;;;;;5066599;28;20529;-54
2023/02/19 08:13:21;;;;;;;4.80;1.20;;;9.70;1.00;;;;;;5074146;28;20462;-54
2023/02/19 08:15:50;;;;;;;4.43;1.08;;;9.80;1.00;;;;;;5071986;28;20383;-55
2023/02/19 08:18:17;;;;;;;5.50;1.10;;;9.70;1.00;;;;;;5057914;28;20394;-57
2023/02/19 08:20:43;;;;;;;7.50;1.20;;;9.70;1.00;;;;;;5082354;28;20438;-54
2023/02/19 08:23:09;;;;;;;5.05;1.00;;;9.70;1.00;;;;;;5091530;28;21062;-53
2023/02/19 08:25:36;;;;;;;4.70;1.10;;;9.70;1.00;;;;;;5091302;28;20406;-53
2023/02/19 08:28:03;;;;;;;4.60;1.23;;;9.70;91.30;;;;;;5086342;28;20839;-54
2023/02/19 08:30:30;;;;;;;5.10;1.10;;;9.80;1.00;;;;;;5091302;28;20390;-54
2023/02/19 08:33:00;;;;;;;5.63;1.30;;;9.90;1.00;;;;;;5091161;28;20414;-54
2023/02/19 08:35:27;;;;;;;4.70;1.00;;;9.80;1.00;;;;;;5070191;28;20860;-54
2023/02/19 08:38:02;;;;;;;4.33;0.60;;;9.80;1.00;;;;;;5060792;28;20821;-57
2023/02/19 08:40:28;;;;;;;4.20;0.90;;;9.60;1.00;;;;;;5064082;28;20386;-57
2023/02/19 08:42:53;;;;;;;4.40;0.75;;;9.60;99.90;;;;;;5089216;28;20378;-57
2023/02/19 08:45:19;;;;;;;4.13;0.87;;;9.40;13.10;;;;;;5091020;28;20831;-57
2023/02/19 08:47:45;;;;;;;4.05;0.70;;;9.40;99.90;;;;;;5091000;28;20473;-57
2023/02/19 08:50:11;;;;;;;4.70;0.90;;;9.50;99.90;;;;;;5090493;28;20402;-57
2023/02/19 08:52:37;;;;;;;4.70;0.90;;;9.30;19.40;;;;;;5091491;28;20455;-57
2023/02/19 08:55:07;;;;;;;5.50;0.95;;;9.30;99.90;;;;;;5090716;28;20887;-57
2023/02/19 08:57:36;;;;;;;4.78;1.05;;;9.50;1.00;;;;;;5090152;28;20417;-57
2023/02/19 09:00:02;;;;;;;4.28;0.90;;;9.60;1.00;;;;;;5086405;28;20434;-57
2023/02/19 09:02:29;;;;;;;4.35;0.90;;;9.60;1.00;;;;;;5090330;28;20480;-57
2023/02/19 09:04:54;;;;;;;5.10;1.10;;;9.60;99.90;;;;;;5090889;28;20382;-57
2023/02/19 09:07:20;;;;;;;4.07;0.75;;;9.60;1.00;;;;;;5090140;28;20382;-57
2023/02/19 09:09:46;;;;;;;5.60;1.20;;;9.60;1.00;;;;;;5090747;28;20378;-57
2023/02/19 09:12:12;;;;;;;4.53;1.10;;;9.60;99.90;;;;;;5090153;28;20398;-57
2023/02/19 09:14:38;;;;;;;4.55;1.10;;;9.70;99.90;;;;;;5087068;28;20557;-57
2023/02/19 09:17:05;;;;;;;7.20;1.10;;;9.70;99.90;;;;;;5090464;28;20431;-56
2023/02/19 09:19:31;;;;;;;5.90;1.20;;;9.70;99.90;;;;;;5090037;28;20478;-57
2023/02/19 09:21:58;;;;;;;4.90;1.10;;;9.70;99.90;;;;;;5090533;28;20429;-57
2023/02/19 09:24:24;;;;;;;4.38;0.90;;;9.70;99.90;;;;;;5089434;28;20400;-56
2023/02/19 09:26:50;;;;;;;5.20;1.10;;;9.70;1.00;;;;;;5090201;28;20382;-57
2023/02/19 09:29:17;;;;;;;5.88;1.20;;;9.80;99.90;;;;;;5089591;28;20367;-58
2023/02/19 09:31:42;;;;;;;5.22;0.88;;;9.80;99.90;;;;;;5089844;28;20471;-57
2023/02/19 09:34:08;;;;;;;4.60;1.30;;;9.90;99.90;;;;;;5090462;28;20406;-57
2023/02/19 09:36:34;;;;;;;5.53;1.30;;;9.90;1.00;;;;;;5088053;28;20419;-57
2023/02/19 09:39:00;;;;;;;8.60;1.20;;;10.00;1.00;;;;;;5088710;28;20443;-57
2023/02/19 09:41:32;;;;;;;6.10;1.20;;;9.90;99.90;;;;;;5089264;28;20850;-56
2023/02/19 09:44:00;;;;;;;4.80;1.00;;;10.00;99.90;;;;;;5087186;28;20366;-56
2023/02/19 09:46:33;;;;;;;5.10;0.90;;;10.10;1.00;;;;;;5089322;28;20389;-56
2023/02/19 09:49:13;;;;;;;5.50;1.10;;;10.30;1.00;;;;;;5089943;28;20390;-56
2023/02/19 09:51:43;;;;;;;4.43;0.80;;;10.40;99.90;;;;;;5084287;28;20401;-57
2023/02/19 09:54:19;;;;;;;4.53;0.93;;;10.60;1.00;;;;;;5088830;28;20378;-57
2023/02/19 09:56:44;;;;;;;6.20;0.80;;;10.90;99.90;;;;;;5086069;28;20379;-56
2023/02/19 09:59:37;;;;;;;4.23;0.67;;;11.10;99.90;;;;;;5070379;28;20464;-56
2023/02/19 10:02:15;;;;;;;4.70;0.80;;;11.10;99.90;;;;;;5062165;28;20399;-56
2023/02/19 10:04:43;;;;;;;4.75;0.80;;;11.10;99.90;;;;;;5069828;28;20449;-56
2023/02/19 10:07:15;;;;;;;5.07;1.00;;;11.10;99.90;;;;;;5070367;28;20675;-57
2023/02/19 10:09:43;;;;;;;4.47;0.70;;;11.10;99.90;;;;;;5069747;28;20387;-56
2023/02/19 10:12:19;;;;;;;5.00;0.90;;;11.30;99.90;;;;;;5069319;28;20431;-56
2023/02/19 10:14:49;;;;;;;4.70;0.90;;;11.30;99.90;;;;;;5069827;28;20407;-57
2023/02/19 10:17:28;;;;;;;5.10;0.90;;;11.50;99.90;;;;;;5069227;28;20391;-57
2023/02/19 10:19:55;;;;;;;5.20;0.80;;;11.70;99.90;;;;;;5060932;28;20432;-57
2023/02/19 10:22:24;;;;;;;5.30;1.00;;;11.50;99.90;;;;;;5049902;28;20409;-57
2023/02/19 10:24:53;;;;;;;5.68;1.10;;;11.70;99.90;;;;;;5069984;28;20490;-57
2023/02/19 10:27:19;;;;;;;4.63;0.80;;;11.80;99.90;;;;;;5086510;28;20382;-57
2023/02/19 10:29:48;;;;;;;5.20;0.80;;;11.70;98.20;;;;;;5070847;28;20442;-57
2023/02/19 10:32:25;;;;;;;4.40;0.80;;;11.50;89.40;;;;;;5067983;28;20404;-57
2023/02/19 10:35:06;;;;;;;4.82;1.00;;;11.20;92.10;;;;;;5079007;28;20443;-57
2023/02/19 10:37:32;;;;;;;5.43;1.10;;;11.10;99.90;;;;;;5065226;28;20408;-57
2023/02/19 10:40:00;;;;;;;5.55;1.27;;;11.30;99.90;;;;;;5069175;28;20375;-56
2023/02/19 10:42:25;;;;;;;5.07;1.33;;;11.10;99.90;;;;;;5068554;28;20394;-57
2023/02/19 10:45:00;;;;;;;4.60;0.80;;;11.60;99.90;;;;;;5068586;28;20456;-57
2023/02/19 10:47:30;;;;;;;5.72;1.00;;;11.10;97.20;;;;;;5061536;28;20397;-57
2023/02/19 10:49:58;;;;;;;5.43;1.00;;;11.10;99.90;;;;;;5049093;28;20377;-57
2023/02/19 10:52:29;;;;;;;5.90;1.00;;;11.30;99.90;;;;;;5048409;28;20405;-57
2023/02/19 10:55:12;;;;;;;5.85;0.88;;;11.40;99.90;;;;;;5048599;28;20910;-57
2023/02/19 10:57:39;;;;;;;4.25;0.70;;;11.40;99.90;;;;;;5063351;28;20387;-57
2023/02/19 11:00:14;;;;;;;5.00;0.90;;;11.30;99.90;;;;;;5062149;28;20440;-57
2023/02/19 11:02:41;;;;;;;4.97;1.13;;;11.10;99.90;;;;;;5069124;28;20415;-57
2023/02/19 11:05:15;;;;;;;4.57;0.90;;;11.00;99.90;;;;;;5069224;28;20380;-57
2023/02/19 11:07:52;;;;;;;7.82;1.17;;;11.00;99.90;;;;;;5063598;28;20384;-57
2023/02/19 11:10:43;;;;;;;6.00;1.00;;;10.90;99.90;;;;;;5082183;28;20883;-57
2023/02/19 11:13:15;;;;;;;6.32;1.20;;;10.70;99.90;;;;;;5062104;28;20442;-57
2023/02/19 11:15:42;;;;;;;4.45;0.70;;;10.60;99.90;;;;;;5068572;28;20410;-56
2023/02/19 11:18:11;;;;;;;6.00;1.02;;;10.50;99.90;;;;;;5084340;28;20796;-57
2023/02/19 11:20:47;;;;;;;4.53;0.82;;;10.50;99.90;;;;;;5080409;28;21046;-57
2023/02/19 11:23:17;;;;;;;5.22;1.00;;;10.70;99.90;;;;;;5089130;28;20465;-57
2023/02/19 11:25:48;;;;;;;6.20;0.93;;;10.70;99.90;;;;;;5083359;28;20902;-57
2023/02/19 11:28:29;;;;;;;4.70;0.70;;;10.80;99.90;;;;;;5067818;28;20392;-56
2023/02/19 11:31:21;;;;;;;4.20;0.70;;;10.60;99.90;;;;;;5068981;28;20412;-57
2023/02/19 11:33:54;;;;;;;4.60;1.00;;;11.00;99.90;;;;;;5068967;28;20471;-57
2023/02/19 11:36:32;;;;;;;6.50;1.42;;;11.30;99.90;;;;;;5068731;28;20861;-58
2023/02/19 11:39:14;;;;;;;4.82;0.82;;;11.70;99.90;;;;;;5086177;28;20863;-57
2023/02/19 11:41:52;;;;;;;5.10;0.80;;;11.50;99.90;;;;;;5091955;28;20465;-57
2023/02/19 11:44:48;;;;;;;4.60;0.90;;;11.30;96.50;;;;;;5091801;28;20390;-57
2023/02/19 11:47:25;;;;;;;6.75;1.70;;;11.20;88.00;;;;;;5062129;28;20388;-57
2023/02/19 11:50:11;;;;;;;6.57;1.10;;;11.30;99.90;;;;;;5087635;28;20851;-57
2023/02/19 11:52:51;;;;;;;4.90;1.00;;;11.30;59.50;;;;;;5062538;28;20969;-57
2023/02/19 11:55:25;;;;;;;4.65;0.90;;;11.30;59.50;;;;;;5075531;28;20399;-57
2023/02/19 11:58:02;;;;;;;5.60;1.00;;;11.20;45.90;;;;;;5071801;28;20841;-57
2023/02/19 12:00:40;;;;;;;5.10;1.10;;;11.20;56.50;;;;;;5060515;28;20369;-57
2023/02/19 12:03:42;;;;;;;8.00;1.60;;;11.00;49.00;;;;;;5085514;28;20882;-57
2023/02/19 12:06:31;;;;;;;4.53;1.00;;;11.00;39.90;;;;;;5079095;28;20402;-57
2023/02/19 12:09:05;;;;;;;6.10;0.90;;;11.00;50.50;;;;;;5083666;28;20763;-57
2023/02/19 12:12:12;;;;;;;5.60;1.30;;;10.80;26.60;;;;;;5085589;28;20416;-57
2023/02/19 12:15:32;;;;;;;5.10;0.93;;;10.90;67.30;;;;;;5072672;28;20390;-57
2023/02/19 12:18:13;;;;;;;4.50;0.90;;;10.90;33.50;;;;;;5028116;28;20713;-57
2023/02/19 12:21:26;;;;;;;6.55;1.13;;;10.80;30.30;;;;;;5019918;28;20404;-57
2023/02/19 12:23:57;;;;;;;4.65;1.00;;;11.10;54.60;;;;;;4991074;28;20513;-58
2023/02/19 12:26:34;;;;;;;5.00;1.10;;;11.30;51.20;;;;;;5080156;28;20436;-59
2023/02/19 12:29:24;;;;;;;4.32;0.80;;;11.40;45.80;;;;;;5091860;28;20395;-58
2023/02/19 12:32:15;;;;;;;9.38;1.40;;;11.30;34.80;;;;;;5091956;28;20437;-57
2023/02/19 12:35:16;;;;;;;5.50;1.10;;;11.40;46.90;;;;;;5090986;28;20731;-57
2023/02/19 12:37:52;;;;;;;5.13;0.95;;;11.40;24.30;;;;;;5060022;28;20403;-57
2023/02/19 12:40:48;;;;;;;4.50;0.80;;;11.30;15.60;;;;;;5088104;28;20378;-57
2023/02/19 12:43:23;;;;;;;5.50;1.00;;;11.20;6.40;;;;;;5091441;28;20759;-57
2023/02/19 12:45:52;;;;;;;4.20;0.70;;;11.20;18.90;;;;;;5081149;28;20394;-57
2023/02/19 12:48:22;;;;;;;5.97;1.20;;;11.00;1.00;;;;;;5089231;28;20413;-56
2023/02/19 12:50:53;;;;;;;5.00;0.90;;;11.00;1.00;;;;;;5087419;28;20436;-56
2023/02/19 12:53:46;;;;;;;5.13;0.90;;;11.00;1.00;;;;;;5086734;28;20416;-56
2023/02/19 12:56:37;;;;;;;5.87;1.10;;;11.00;1.00;;;;;;5071597;28;20400;-57
2023/02/19 12:59:10;;;;;;;5.38;1.00;;;11.10;1.00;;;;;;5070581;28;20398;-57
2023/02/19 13:01:49;;;;;;;5.35;1.30;;;11.20;1.00;;;;;;5090240;28;21006;-57
2023/02/19 13:04:21;;;;;;;5.60;1.00;;;11.30;1.00;;;;;;5090984;28;20398;-57
2023/02/19 13:06:59;;;;;;;5.20;0.70;;;11.30;1.00;;;;;;5084364;28;20404;-57
2023/02/19 13:09:50;;;;;;;6.10;0.82;;;10.90;1.00;;;;;;5085585;28;20870;-57
2023/02/19 13:12:24;;;;;;;5.20;1.00;;;10.80;1.00;;;;;;5085123;28;20504;-57
2023/02/19 13:15:01;;;;;;;6.80;1.33;;;10.60;1.00;;;;;;5086281;28;20398;-57
2023/02/19 13:17:48;;;;;;;5.10;1.30;;;10.60;1.00;;;;;;5083229;28;20873;-57
2023/02/19 13:20:29;;;;;;;7.15;1.30;;;10.50;1.00;;;;;;5071478;28;20396;-57
2023/02/19 13:26:27;;;;;;;6.80;1.40;;;10.60;18.00;;;;;;5087074;28;20746;-57
2023/02/19 13:29:21;;;;;;;8.60;1.38;;;10.50;26.40;;;;;;5089342;28;20774;-57
2023/02/19 13:32:23;;;;;;;5.00;1.20;;;10.60;81.60;;;;;;5088184;28;20417;-57
2023/02/19 13:35:26;;;;;;;6.22;1.20;;;10.40;1.00;;;;;;5088490;28;20385;-56
2023/02/19 13:37:53;;;;;;;6.95;2.28;;;10.40;99.90;;;;;;5088968;28;20947;-57
2023/02/19 13:40:33;;;;;;;8.70;1.80;;;10.50;1.00;;;;;;5081044;28;20390;-57
2023/02/19 13:43:20;;;;;;;6.80;2.20;;;10.40;1.00;;;;;;5085402;28;20578;-57
2023/02/19 13:45:46;;;;;;;7.00;1.50;;;10.40;1.00;;;;;;5069573;28;20853;-57
2023/02/19 13:48:35;;;;;;;5.07;1.10;;;10.30;1.00;;;;;;5070200;28;20371;-56